createdAt,value
2023-03-26T00:01:02.080Z,38.60
2023-03-26T00:03:30.081Z,36.58
2023-03-26T00:06:08.813Z,40.92
2023-03-26T00:08:37.056Z,38.25
2023-03-26T00:11:05.102Z,35.60
2023-03-26T00:13:32.350Z,35.70
2023-03-26T00:15:59.740Z,35.53
2023-03-26T00:18:30.763Z,38.35
2023-03-26T00:21:03.224Z,37.45
2023-03-26T00:23:31.151Z,35.25
2023-03-26T00:25:58.003Z,39.13
2023-03-26T00:28:26.345Z,38.80
2023-03-26T00:31:01.172Z,37.35
2023-03-26T00:33:28.511Z,41.55
2023-03-26T00:35:56.865Z,40.38
2023-03-26T00:38:24.033Z,39.97
2023-03-26T00:40:51.832Z,37.45
2023-03-26T00:43:19.510Z,38.42
2023-03-26T00:45:51.042Z,40.40
2023-03-26T00:48:18.349Z,41.45
2023-03-26T00:50:46.599Z,43.03
2023-03-26T00:53:14.384Z,42.40
2023-03-26T00:55:41.769Z,47.22
2023-03-26T00:58:11.838Z,45.53
2023-03-26T01:01:00.589Z,45.63
2023-03-26T01:03:31.094Z,47.72
2023-03-26T01:06:04.750Z,48.58
2023-03-26T01:08:41.374Z,48.53
2023-03-26T01:11:14.305Z,50.67
2023-03-26T01:13:44.988Z,46.72
2023-03-26T01:16:20.571Z,45.88
2023-03-26T01:18:48.797Z,47.95
2023-03-26T01:21:22.854Z,46.25
2023-03-26T01:24:02.525Z,47.67
2023-03-26T01:26:44.199Z,47.45
2023-03-26T01:32:04.048Z,45.72
2023-03-26T01:35:03.058Z,47.08
2023-03-26T01:37:52.729Z,53.85
2023-03-26T01:40:26.804Z,56.17
2023-03-26T01:42:54.620Z,57.25
2023-03-26T01:45:24.358Z,48.42
2023-03-26T01:47:51.132Z,48.80
2023-03-26T01:50:17.873Z,49.28
2023-03-26T01:52:44.653Z,46.08
2023-03-26T01:55:12.772Z,51.38
2023-03-26T01:57:45.057Z,51.08
2023-03-26T02:00:43.797Z,50.05
2023-03-26T02:03:19.339Z,60.70
2023-03-26T02:06:01.283Z,55.42
2023-03-26T02:08:35.865Z,52.17
2023-03-26T02:11:05.917Z,48.92
2023-03-26T02:13:32.766Z,48.28
2023-03-26T02:16:05.104Z,49.35
2023-03-26T02:18:39.191Z,47.55
2023-03-26T02:21:12.361Z,50.95
2023-03-26T02:23:46.985Z,48.60
2023-03-26T02:26:16.171Z,49.83
2023-03-26T02:28:42.842Z,50.92
2023-03-26T02:31:11.168Z,49.40
2023-03-26T02:33:37.943Z,52.60
2023-03-26T02:36:05.236Z,49.40
2023-03-26T02:38:35.644Z,48.65
2023-03-26T02:41:02.900Z,49.70
2023-03-26T02:43:29.940Z,45.35
2023-03-26T02:45:57.422Z,44.83
2023-03-26T02:48:24.292Z,45.95
2023-03-26T02:50:54.339Z,44.00
2023-03-26T02:53:21.915Z,42.67
2023-03-26T02:55:48.586Z,39.50
2023-03-26T02:58:18.383Z,40.00
2023-03-26T03:00:47.289Z,41.40
2023-03-26T03:03:14.313Z,40.70
2023-03-26T03:05:43.373Z,40.17
2023-03-26T03:08:10.384Z,39.60
2023-03-26T03:10:37.916Z,38.53
2023-03-26T03:13:07.734Z,39.10
2023-03-26T03:15:35.142Z,36.45
2023-03-26T03:18:02.560Z,33.90
2023-03-26T03:20:30.453Z,35.38
2023-03-26T03:22:57.164Z,35.05
2023-03-26T03:25:26.082Z,34.80
2023-03-26T03:27:54.078Z,35.75
2023-03-26T03:30:21.067Z,35.03
2023-03-26T03:32:47.952Z,29.17
2023-03-26T03:35:14.684Z,33.28
2023-03-26T03:37:41.606Z,32.50
2023-03-26T03:40:10.893Z,30.30
2023-03-26T03:45:06.428Z,27.00
2023-03-26T03:47:33.137Z,27.80
2023-03-26T03:50:02.557Z,28.17
2023-03-26T03:52:29.270Z,22.88
2023-03-26T03:54:57.869Z,23.17
2023-03-26T03:57:24.495Z,20.77
2023-03-26T03:59:51.149Z,19.45
2023-03-26T04:02:35.919Z,21.15
2023-03-26T04:05:03.356Z,12.27
2023-03-26T04:07:31.277Z,8.02
2023-03-26T04:10:03.000Z,6.03
2023-03-26T04:12:31.156Z,4.72
2023-03-26T04:14:58.445Z,4.55
2023-03-26T04:17:25.501Z,4.13
2023-03-26T04:19:55.372Z,3.80
2023-03-26T04:22:22.495Z,3.97
2023-03-26T04:24:50.234Z,4.82
2023-03-26T04:27:20.351Z,4.57
2023-03-26T04:29:49.777Z,4.60
2023-03-26T04:32:26.683Z,4.30
2023-03-26T04:34:53.799Z,3.85
2023-03-26T04:37:27.587Z,4.13
2023-03-26T04:39:55.200Z,4.30
2023-03-26T04:42:21.937Z,4.47
2023-03-26T04:44:52.337Z,4.55
2023-03-26T04:47:19.419Z,3.13
2023-03-26T04:49:47.408Z,3.90
2023-03-26T04:52:15.093Z,3.45
2023-03-26T04:54:43.749Z,5.10
2023-03-26T04:57:22.545Z,5.10
2023-03-26T04:59:50.209Z,5.30
2023-03-26T05:02:18.028Z,6.47
2023-03-26T05:04:48.509Z,5.35
2023-03-26T05:07:19.247Z,5.32
2023-03-26T05:09:46.212Z,4.95
2023-03-26T05:12:12.964Z,5.00
2023-03-26T05:14:39.682Z,5.15
2023-03-26T05:17:06.388Z,5.53
2023-03-26T05:19:33.076Z,5.68
2023-03-26T05:21:59.755Z,5.15
2023-03-26T05:24:28.795Z,5.22
2023-03-26T05:26:56.220Z,5.47
2023-03-26T05:29:24.297Z,5.20
2023-03-26T05:31:51.072Z,5.47
2023-03-26T05:34:17.863Z,4.75
2023-03-26T05:36:44.549Z,5.47
2023-03-26T05:39:11.212Z,5.45
2023-03-26T05:41:37.878Z,6.45
2023-03-26T05:44:04.793Z,5.25
2023-03-26T05:46:31.506Z,4.70
2023-03-26T05:48:58.260Z,7.25
2023-03-26T05:51:24.950Z,4.53
2023-03-26T05:53:51.850Z,5.60
2023-03-26T05:56:18.566Z,4.70
2023-03-26T05:58:45.326Z,12.02
2023-03-26T06:01:16.922Z,4.70
2023-03-26T06:03:45.898Z,4.72
2023-03-26T06:06:15.742Z,3.88
2023-03-26T06:08:48.898Z,4.05
2023-03-26T06:11:29.180Z,14.05
2023-03-26T06:13:55.892Z,4.18
2023-03-26T06:16:26.360Z,4.63
2023-03-26T06:18:56.277Z,4.28
2023-03-26T06:21:27.866Z,3.95
2023-03-26T06:23:55.406Z,3.63
2023-03-26T06:26:22.385Z,3.90
2023-03-26T06:28:49.147Z,3.90
2023-03-26T06:31:17.406Z,3.13
2023-03-26T06:33:44.185Z,4.00
2023-03-26T06:36:11.098Z,3.28
2023-03-26T06:38:37.855Z,3.60
2023-03-26T06:41:05.989Z,3.50
2023-03-26T06:43:33.842Z,4.15
2023-03-26T06:46:01.509Z,3.95
2023-03-26T06:48:28.268Z,4.72
2023-03-26T06:50:55.213Z,4.97
2023-03-26T06:53:22.173Z,4.95
2023-03-26T06:55:49.023Z,4.65
2023-03-26T06:58:16.953Z,4.25
2023-03-26T07:00:43.991Z,3.65
2023-03-26T07:03:11.637Z,3.17
2023-03-26T07:05:39.018Z,3.67
2023-03-26T07:08:05.918Z,3.22
2023-03-26T07:10:33.273Z,5.18
2023-03-26T07:12:59.934Z,4.30
2023-03-26T07:15:28.395Z,3.45
2023-03-26T07:17:55.580Z,3.85
2023-03-26T07:20:22.731Z,2.40
2023-03-26T07:22:49.932Z,3.45
2023-03-26T07:25:18.021Z,3.08
2023-03-26T07:27:56.503Z,3.60
2023-03-26T07:30:31.801Z,3.88
2023-03-26T07:35:41.107Z,3.30
2023-03-26T07:38:26.073Z,3.95
2023-03-26T07:41:06.057Z,4.28
2023-03-26T07:43:38.666Z,5.22
2023-03-26T07:46:05.887Z,4.25
2023-03-26T07:48:40.860Z,3.60
2023-03-26T07:51:08.544Z,4.65
2023-03-26T07:53:35.543Z,5.13
2023-03-26T07:56:05.329Z,4.50
2023-03-26T07:59:09.667Z,4.20
2023-03-26T08:02:10.377Z,5.60
2023-03-26T08:04:52.603Z,5.82
2023-03-26T08:07:41.469Z,5.20
2023-03-26T08:10:26.553Z,6.03
2023-03-26T08:12:58.188Z,5.57
2023-03-26T08:15:29.604Z,5.75
2023-03-26T08:18:35.748Z,5.60
2023-03-26T08:24:06.429Z,5.82
2023-03-26T08:26:55.281Z,4.88
2023-03-26T08:29:36.062Z,5.38
2023-03-26T08:32:04.619Z,4.57
2023-03-26T08:34:31.340Z,5.50
2023-03-26T08:36:58.050Z,5.07
2023-03-26T08:39:25.060Z,5.72
2023-03-26T08:42:04.739Z,5.90
2023-03-26T08:45:04.327Z,4.43
2023-03-26T08:48:06.716Z,4.18
2023-03-26T08:50:48.736Z,4.68
2023-03-26T08:53:24.241Z,6.30
2023-03-26T08:56:09.197Z,5.00
2023-03-26T08:58:54.598Z,5.30
2023-03-26T09:01:39.150Z,3.90
2023-03-26T09:04:27.998Z,4.93
2023-03-26T09:07:29.522Z,4.80
2023-03-26T09:10:15.245Z,5.15
2023-03-26T09:13:36.189Z,4.57
2023-03-26T09:16:34.554Z,3.42
2023-03-26T09:19:06.831Z,5.35
2023-03-26T09:21:58.211Z,3.40
2023-03-26T09:24:41.158Z,3.78
2023-03-26T09:27:26.553Z,4.65
2023-03-26T09:30:11.954Z,3.03
2023-03-26T09:33:07.487Z,3.47
2023-03-26T09:35:58.941Z,7.13
2023-03-26T09:38:45.766Z,8.63
2023-03-26T09:41:37.457Z,6.18
2023-03-26T09:44:46.561Z,3.22
2023-03-26T09:47:32.312Z,4.90
2023-03-26T09:50:26.811Z,2.38
2023-03-26T09:53:03.780Z,4.07
2023-03-26T09:55:38.556Z,3.30
2023-03-26T09:58:16.268Z,3.22
2023-03-26T10:01:05.602Z,3.35
2023-03-26T10:03:38.376Z,3.50
2023-03-26T10:06:22.828Z,3.40
2023-03-26T10:09:01.282Z,3.97
2023-03-26T10:11:39.949Z,4.38
2023-03-26T10:14:15.781Z,4.43
2023-03-26T10:16:50.813Z,4.57
2023-03-26T10:22:13.508Z,3.30
2023-03-26T10:24:48.750Z,3.42
2023-03-26T10:27:51.354Z,3.95
2023-03-26T10:30:42.361Z,3.58
2023-03-26T10:33:21.789Z,3.10
2023-03-26T10:36:40.151Z,3.58
2023-03-26T10:39:36.961Z,3.55
2023-03-26T10:42:14.490Z,4.13
2023-03-26T10:44:55.039Z,4.35
2023-03-26T10:47:43.369Z,14.38
2023-03-26T10:50:27.040Z,4.72
2023-03-26T10:53:18.162Z,2.70
2023-03-26T10:55:47.131Z,3.78
2023-03-26T11:01:24.750Z,4.05
2023-03-26T11:03:56.664Z,3.45
2023-03-26T11:06:54.442Z,2.90
2023-03-26T11:09:36.103Z,2.50
2023-03-26T11:12:26.199Z,3.13
2023-03-26T11:15:06.596Z,2.63
2023-03-26T11:17:43.652Z,3.08
2023-03-26T11:20:22.260Z,3.97
2023-03-26T11:23:00.829Z,2.67
2023-03-26T11:26:01.451Z,3.50
2023-03-26T11:29:32.660Z,3.10
2023-03-26T11:32:33.395Z,2.40
2023-03-26T11:35:40.265Z,2.67
2023-03-26T11:38:17.246Z,2.38
2023-03-26T11:40:48.976Z,1.45
2023-03-26T11:43:17.267Z,3.00
2023-03-26T11:45:48.486Z,2.95
2023-03-26T11:48:37.498Z,1.55
2023-03-26T11:51:18.734Z,2.38
2023-03-26T11:57:21.749Z,2.13
2023-03-26T12:00:08.364Z,2.47
2023-03-26T12:02:41.476Z,2.33
2023-03-26T12:05:18.388Z,2.17
2023-03-26T12:07:57.444Z,2.58
2023-03-26T12:10:38.862Z,2.40
2023-03-26T12:16:20.861Z,2.45
2023-03-26T12:19:07.512Z,2.95
2023-03-26T12:21:48.419Z,3.63
2023-03-26T12:24:25.962Z,3.15
2023-03-26T12:27:02.773Z,3.63
2023-03-26T12:29:34.557Z,3.63
2023-03-26T12:32:07.974Z,3.30
2023-03-26T12:34:38.306Z,2.92
2023-03-26T12:37:07.004Z,3.33
2023-03-26T12:40:10.168Z,1.60
2023-03-26T12:44:44.806Z,2.08
2023-03-26T12:45:28.786Z,2.60
2023-03-26T12:48:03.380Z,1.45
2023-03-26T12:50:59.298Z,2.08
2023-03-26T12:53:56.439Z,2.25
2023-03-26T12:56:37.058Z,2.63
2023-03-26T12:59:12.473Z,3.40
2023-03-26T13:02:14.825Z,6.65
2023-03-26T13:05:13.312Z,2.35
2023-03-26T13:07:40.054Z,3.75
2023-03-26T13:10:25.465Z,2.75
2023-03-26T13:13:29.536Z,2.47
2023-03-26T13:16:29.980Z,2.33
2023-03-26T13:19:34.396Z,3.10
2023-03-26T13:22:22.386Z,2.50
2023-03-26T13:25:09.161Z,3.08
2023-03-26T13:27:54.672Z,2.40
2023-03-26T13:30:31.496Z,2.25
2023-03-26T13:33:21.018Z,2.78
2023-03-26T13:36:22.520Z,2.63
2023-03-26T13:39:03.660Z,3.13
2023-03-26T13:41:55.056Z,5.63
2023-03-26T13:44:29.632Z,3.30
2023-03-26T13:47:20.676Z,4.20
2023-03-26T13:49:51.987Z,3.22
2023-03-26T13:52:25.059Z,7.72
2023-03-26T13:55:13.437Z,5.28
2023-03-26T13:57:43.889Z,4.82
2023-03-26T14:00:21.917Z,3.85
2023-03-26T14:03:03.335Z,3.15
2023-03-26T14:05:42.216Z,32.47
2023-03-26T14:08:36.914Z,15.10
2023-03-26T14:11:07.760Z,15.95
2023-03-26T14:13:39.106Z,5.30
2023-03-26T14:16:15.115Z,9.88
2023-03-26T14:19:00.518Z,3.20
2023-03-26T14:21:49.592Z,2.47
2023-03-26T14:24:27.936Z,2.60
2023-03-26T14:27:16.749Z,2.53
2023-03-26T14:29:58.320Z,3.22
2023-03-26T14:32:42.528Z,6.03
2023-03-26T14:35:35.184Z,2.83
2023-03-26T14:38:35.001Z,2.88
2023-03-26T14:41:22.086Z,2.72
2023-03-26T14:44:10.626Z,3.65
2023-03-26T14:46:43.597Z,5.53
2023-03-26T14:49:39.966Z,2.67
2023-03-26T14:52:41.940Z,3.75
2023-03-26T14:55:33.113Z,3.03
2023-03-26T14:58:37.244Z,2.78
2023-03-26T15:01:17.380Z,2.70
2023-03-26T15:03:55.774Z,4.72
2023-03-26T15:06:40.023Z,3.00
2023-03-26T15:09:46.251Z,2.75
2023-03-26T15:12:41.232Z,1.98
2023-03-26T15:15:32.760Z,3.50
2023-03-26T15:18:34.792Z,3.58
2023-03-26T15:21:19.756Z,2.97
2023-03-26T15:23:49.531Z,2.85
2023-03-26T15:26:47.223Z,3.15
2023-03-26T15:29:35.559Z,2.60
2023-03-26T15:32:30.279Z,2.72
2023-03-26T15:35:33.840Z,2.42
2023-03-26T15:38:34.416Z,2.50
2023-03-26T15:41:22.868Z,2.78
2023-03-26T15:44:23.629Z,3.30
2023-03-26T15:46:51.350Z,3.63
2023-03-26T15:49:36.858Z,4.50
2023-03-26T15:52:29.747Z,6.45
2023-03-26T15:55:15.188Z,4.15
2023-03-26T15:57:47.968Z,3.08
2023-03-26T16:00:23.233Z,3.42
2023-03-26T16:05:41.961Z,4.55
2023-03-26T16:08:19.040Z,3.03
2023-03-26T16:10:52.889Z,2.63
2023-03-26T16:13:19.532Z,4.18
2023-03-26T16:16:02.375Z,2.70
2023-03-26T16:18:48.467Z,2.85
2023-03-26T16:21:32.806Z,3.00
2023-03-26T16:24:02.534Z,3.47
2023-03-26T16:26:44.671Z,3.60
2023-03-26T16:29:18.201Z,6.30
2023-03-26T16:35:33.636Z,3.42
2023-03-26T16:38:13.480Z,4.03
2023-03-26T16:41:03.804Z,3.85
2023-03-26T16:43:41.252Z,3.40
2023-03-26T16:46:26.611Z,3.53
2023-03-26T16:49:22.458Z,3.33
2023-03-26T16:52:00.219Z,3.42
2023-03-26T16:54:39.710Z,4.00
2023-03-26T16:57:28.555Z,4.43
2023-03-26T17:00:24.691Z,4.57
2023-03-26T17:03:08.054Z,4.65
2023-03-26T17:06:02.194Z,5.45
2023-03-26T17:08:35.401Z,4.43
2023-03-26T17:11:09.680Z,4.97
2023-03-26T17:13:55.549Z,3.88
2023-03-26T17:16:26.206Z,4.82
2023-03-26T17:19:29.777Z,7.45
2023-03-26T17:22:03.777Z,5.38
2023-03-26T17:24:51.026Z,4.70
2023-03-26T17:27:34.222Z,5.80
2023-03-26T17:30:43.244Z,4.00
2023-03-26T17:33:20.515Z,12.98
2023-03-26T17:35:49.902Z,12.18
2023-03-26T17:38:25.841Z,12.45
2023-03-26T17:41:00.580Z,16.45
2023-03-26T17:43:36.439Z,13.00
2023-03-26T17:46:06.921Z,7.25
2023-03-26T17:48:36.855Z,9.80
2023-03-26T17:51:13.246Z,11.63
2023-03-26T17:53:41.449Z,8.48
2023-03-26T17:56:16.528Z,8.90
2023-03-26T17:58:47.939Z,10.38
2023-03-26T18:01:31.009Z,8.18
2023-03-26T18:04:00.706Z,9.40
2023-03-26T18:07:00.339Z,10.15
2023-03-26T18:10:03.866Z,10.55
2023-03-26T18:12:55.725Z,7.93
2023-03-26T18:15:45.011Z,7.22
2023-03-26T18:18:25.896Z,6.97
2023-03-26T18:20:54.678Z,12.45
2023-03-26T18:23:21.478Z,16.52
2023-03-26T18:26:10.004Z,13.02
2023-03-26T18:28:42.264Z,11.60
2023-03-26T18:31:19.525Z,12.32
2023-03-26T18:33:48.601Z,8.55
2023-03-26T18:36:16.481Z,8.82
2023-03-26T18:38:43.299Z,9.75
2023-03-26T18:41:20.544Z,8.52
2023-03-26T18:43:47.275Z,8.20
2023-03-26T18:46:14.931Z,9.15
2023-03-26T18:48:42.437Z,11.00
2023-03-26T18:51:10.052Z,10.95
2023-03-26T18:53:48.818Z,9.02
2023-03-26T18:56:32.973Z,8.40
2023-03-26T18:59:02.475Z,9.57
2023-03-26T19:01:30.927Z,33.15
2023-03-26T19:03:59.943Z,15.23
2023-03-26T19:06:26.922Z,10.65
2023-03-26T19:08:53.934Z,18.27
2023-03-26T19:11:20.689Z,13.15
2023-03-26T19:13:59.238Z,10.73
2023-03-26T19:16:29.874Z,10.07
2023-03-26T19:18:58.668Z,9.60
2023-03-26T19:21:25.498Z,8.75
2023-03-26T19:23:52.470Z,10.73
2023-03-26T19:26:19.381Z,12.65
2023-03-26T19:28:53.302Z,10.20
2023-03-26T19:31:23.471Z,8.85
2023-03-26T19:34:12.045Z,8.70
2023-03-26T19:37:01.661Z,10.00
2023-03-26T19:39:41.693Z,7.25
2023-03-26T19:42:14.354Z,9.35
2023-03-26T19:44:42.122Z,9.68
2023-03-26T19:47:19.691Z,8.68
2023-03-26T19:50:02.871Z,9.13
2023-03-26T19:52:38.426Z,10.05
2023-03-26T19:55:10.233Z,9.85
2023-03-26T19:57:37.882Z,12.02
2023-03-26T20:00:13.772Z,11.23
2023-03-26T20:02:42.389Z,10.25
2023-03-26T20:05:26.146Z,12.27
2023-03-26T20:07:55.951Z,9.13
2023-03-26T20:10:23.404Z,8.82
2023-03-26T20:12:50.331Z,8.60
2023-03-26T20:15:19.280Z,8.77
2023-03-26T20:17:50.183Z,8.05
2023-03-26T20:23:02.339Z,8.80
2023-03-26T20:25:35.246Z,8.77
2023-03-26T20:28:02.486Z,8.77
2023-03-26T20:30:37.488Z,7.90
2023-03-26T20:33:13.003Z,7.45
2023-03-26T20:35:40.966Z,4.25
2023-03-26T20:38:09.640Z,7.85
2023-03-26T20:40:36.906Z,13.30
2023-03-26T20:43:03.580Z,11.32
2023-03-26T20:45:30.259Z,10.05
2023-03-26T20:47:57.607Z,8.05
2023-03-26T20:50:26.704Z,8.60
2023-03-26T20:52:54.402Z,9.82
2023-03-26T20:55:21.444Z,10.02
2023-03-26T20:57:48.798Z,10.00
2023-03-26T21:00:22.491Z,7.70
2023-03-26T21:02:53.779Z,12.05
2023-03-26T21:05:30.812Z,13.90
2023-03-26T21:07:59.110Z,16.25
2023-03-26T21:10:29.570Z,19.83
2023-03-26T21:13:02.624Z,19.88
2023-03-26T21:15:29.816Z,18.90
2023-03-26T21:17:57.062Z,22.05
2023-03-26T21:20:25.665Z,9.35
2023-03-26T21:23:16.372Z,11.32
2023-03-26T21:25:48.905Z,12.68
2023-03-26T21:28:42.014Z,10.27
2023-03-26T21:31:21.355Z,9.18
2023-03-26T21:33:49.752Z,9.55
2023-03-26T21:36:18.201Z,10.02
2023-03-26T21:38:45.793Z,10.20
2023-03-26T21:41:26.249Z,8.75
2023-03-26T21:43:52.917Z,7.82
2023-03-26T21:46:20.244Z,10.18
2023-03-26T21:48:47.184Z,8.13
2023-03-26T21:51:15.456Z,7.65
2023-03-26T21:53:42.990Z,7.07
2023-03-26T21:56:22.754Z,7.90
2023-03-26T21:58:55.429Z,9.70
2023-03-26T22:01:33.285Z,9.80
2023-03-26T22:04:00.011Z,10.77
2023-03-26T22:06:37.043Z,8.75
2023-03-26T22:09:04.775Z,9.55
2023-03-26T22:11:31.485Z,10.27
2023-03-26T22:13:58.125Z,8.13
2023-03-26T22:16:25.591Z,8.90
2023-03-26T22:18:53.699Z,9.98
2023-03-26T22:21:20.745Z,10.07
2023-03-26T22:23:52.752Z,9.70
2023-03-26T22:26:23.928Z,9.52
2023-03-26T22:28:50.808Z,10.43
2023-03-26T22:31:17.667Z,11.00
2023-03-26T22:33:44.672Z,11.20
2023-03-26T22:36:22.701Z,14.23
2023-03-26T22:38:53.632Z,10.52
2023-03-26T22:41:21.654Z,10.20
2023-03-26T22:43:48.357Z,8.20
2023-03-26T22:46:15.369Z,9.70
2023-03-26T22:48:42.161Z,10.10
2023-03-26T22:51:09.285Z,8.15
2023-03-26T22:53:36.578Z,9.73
2023-03-26T22:56:04.255Z,9.65
2023-03-26T22:58:31.115Z,10.75
2023-03-26T23:01:05.537Z,16.95
2023-03-26T23:03:34.790Z,17.75
2023-03-26T23:06:04.047Z,15.40
2023-03-26T23:08:31.842Z,15.65
2023-03-26T23:10:58.930Z,16.02
2023-03-26T23:13:26.680Z,15.38
2023-03-26T23:15:57.297Z,15.63
2023-03-26T23:18:24.551Z,15.60
2023-03-26T23:20:52.995Z,16.08
2023-03-26T23:23:21.813Z,17.63
2023-03-26T23:25:48.468Z,18.98
2023-03-26T23:28:17.642Z,21.08
2023-03-26T23:30:54.801Z,23.52
2023-03-26T23:33:25.071Z,22.58
2023-03-26T23:35:54.286Z,24.15
2023-03-26T23:38:22.304Z,25.35
2023-03-26T23:40:57.321Z,27.15
2023-03-26T23:43:25.590Z,26.42
2023-03-26T23:45:53.139Z,23.30
2023-03-26T23:48:24.650Z,22.00
2023-03-26T23:50:53.203Z,21.27
2023-03-26T23:53:31.992Z,21.15
2023-03-26T23:55:59.077Z,21.20
2023-03-26T23:58:30.191Z,19.77
